Bright Hope — HPTM — position and weather

sailwx.info

Track history (hours):
 
Tides and Currents Weather Stations Pressure Air Temp Water Temp Dewpoint Dewpoint Depression Visibility Wind Speed Wind Dir Waves Ship Positions

Bright Hope

Last reported at 2016-May-14 05:33 UTC. Time now 2016-May-26 00:39 UTC.
Position N 36°42' E 123°53'.
Warning: this ship's position is 11 days out of date.

Length 170 m; draft 6.8 m.

Type: Cargo ship. MMSI: 371117000.

Date/timePositionNaut miles runAvg speedWind from/ knotsBaromVisibWave heightAir tempDewpointWater temp
2016-May-14 05:33N 36°42' E 123°53'1212.1
2016-May-14 04:32N 36°53' E 123°49'2411.6
2016-May-14 02:28N 37°16' E 123°38'1411.8
2016-May-14 01:17N 37°29' E 123°32'1112.2
2016-May-14 00:23N 37°39' E 123°26'2512.6
2016-May-13 22:23N 37°58' E 123°05'1113.6
2016-May-13 21:33N 38°01' E 122°51'1413.8
2016-May-13 20:33N 38°05' E 122°35'1413.5
2016-May-13 19:33N 38°10' E 122°18'1313.3
2016-May-13 18:33N 38°14' E 122°02'1313.2
2016-May-13 17:33N 38°18' E 121°47'1313.4
2016-May-13 16:33N 38°23' E 121°30'1313.5
2016-May-13 15:33N 38°26' E 121°14'1313.1
2016-May-13 14:32N 38°32' E 120°58'11510.4
2016-May-13 03:31N 40°18' E 121°54'8 8.3
2016-May-13 02:33N 40°18' E 122°05'0 0.2
2016-May-13 01:15N 40°18' E 122°05'0 0.0
2016-May-12 21:09N 40°18' E 122°05'0 0.0
2016-May-12 20:33N 40°18' E 122°05'0 0.0
2016-May-12 17:03N 40°18' E 122°05'0 0.0
2016-May-12 16:33N 40°18' E 122°05'0 0.0
2016-May-12 15:33N 40°18' E 122°05'0 0.0
2016-May-12 14:27N 40°18' E 122°05'0 0.0
2016-May-12 13:15N 40°18' E 122°05'0 0.0
2016-May-12 11:27N 40°18' E 122°05'0 0.0
2016-May-12 06:33N 40°18' E 122°05'0 0.0
2016-May-12 05:27N 40°18' E 122°05'0 0.0
2016-May-12 04:33N 40°18' E 122°05'0 0.0
2016-May-12 03:09N 40°18' E 122°05'0 0.0
2016-May-12 02:15N 40°18' E 122°05'0 0.0
2016-May-12 01:15N 40°18' E 122°05'0 0.0
2016-May-12 00:33N 40°18' E 122°05'0 0.0
2016-May-11 23:15N 40°18' E 122°05'0 0.0
2016-May-11 22:15N 40°18' E 122°05'0 0.0
2016-May-11 20:33N 40°18' E 122°05'0 0.0
2016-May-11 19:15N 40°18' E 122°05'0 0.0
2016-May-11 18:33N 40°18' E 122°05'0 0.0
2016-May-11 14:15N 40°18' E 122°05'0 0.0
2016-May-11 13:27N 40°18' E 122°05'0 0.0
2016-May-11 12:33N 40°18' E 122°05'0 0.0
2016-May-11 11:27N 40°18' E 122°05'0 0.0
2016-May-11 08:27N 40°18' E 122°05'0 0.0
2016-May-11 07:03N 40°18' E 122°05'0 0.0
2016-May-11 04:33N 40°18' E 122°05'0 0.0
2016-May-10 20:21N 40°18' E 122°05'0 0.0
2016-May-10 16:27N 40°18' E 122°05'0 0.0
2016-May-10 15:33N 40°18' E 122°05'0 0.0
2016-May-10 14:33N 40°18' E 122°05'0 0.0
2016-May-10 13:33N 40°18' E 122°05'0 0.0
2016-May-10 11:15N 40°18' E 122°05'0 0.0
2016-May-10 09:33N 40°18' E 122°05'0 0.0
2016-May-10 07:21N 40°18' E 122°05'1 0.3
2016-May-10 05:33N 40°18' E 122°04'92 3.6
2016-May-09 04:09N 39°37' E 120°16'813.4
2016-May-09 03:33N 39°38' E 120°06'1413.2
2016-May-09 02:28N 39°43' E 119°48'1111.7
2016-May-09 01:34N 39°51' E 119°39'4 3.9
2016-May-09 00:25N 39°54' E 119°36'0 0.0
2016-May-08 23:31N 39°54' E 119°36'0 0.0
2016-May-08 22:25N 39°54' E 119°36'0 0.0
2016-May-08 21:31N 39°54' E 119°36'0 0.0
2016-May-08 20:31N 39°54' E 119°36'0 0.0
2016-May-08 12:19N 39°54' E 119°36'0 0.0
2016-May-08 11:25N 39°54' E 119°36'0 0.0
2016-May-08 09:25N 39°54' E 119°36'0 0.0
2016-May-08 08:31N 39°54' E 119°36'0 0.0
2016-May-08 07:31N 39°54' E 119°36'0 0.0
2016-May-08 06:19N 39°54' E 119°36'0 0.0
2016-May-08 05:31N 39°54' E 119°36'0 0.0
2016-May-08 04:25N 39°54' E 119°36'0 0.0
2016-May-08 03:31N 39°54' E 119°36'0 0.0
2016-May-08 02:25N 39°54' E 119°36'0 0.0
2016-May-08 01:31N 39°54' E 119°36'0 0.0
2016-May-08 00:31N 39°54' E 119°36'0 0.0
2016-May-07 23:31N 39°54' E 119°36'0 0.0
2016-May-07 22:31N 39°54' E 119°36'0 0.0
2016-May-07 21:31N 39°54' E 119°36'0 0.0
2016-May-07 20:31N 39°54' E 119°36'0 0.0
2016-May-07 19:19N 39°54' E 119°36'0 0.0
2016-May-07 18:31N 39°54' E 119°36'0 0.0
2016-May-07 17:31N 39°54' E 119°36'0 0.0
2016-May-07 16:31N 39°54' E 119°36'0 0.0
2016-May-07 15:25N 39°54' E 119°36'0 0.0
2016-May-07 14:31N 39°54' E 119°36'0 0.0
2016-May-07 12:19N 39°54' E 119°36'0 0.0
2016-May-07 08:31N 39°54' E 119°36'0 0.0
2016-May-07 07:31N 39°54' E 119°36'0 0.0
2016-May-07 06:31N 39°54' E 119°36'0 0.0
2016-May-07 05:31N 39°54' E 119°36'0 0.0
2016-May-07 04:31N 39°54' E 119°36'0 0.0
2016-May-07 03:25N 39°54' E 119°36'0 0.0
2016-May-07 02:31N 39°54' E 119°36'0 0.0
2016-May-07 01:31N 39°54' E 119°36'0 0.1
2016-May-07 00:33N 39°54' E 119°36'7 6.6
2016-May-06 23:33N 39°49' E 119°40'3 2.2
2016-May-06 22:13N 39°46' E 119°39'0 0.1
2016-May-06 21:31N 39°46' E 119°39'78 9.7
2016-May-06 13:30N 38°48' E 120°46'1312.2
2016-May-06 12:24N 38°37' E 120°55'1112.0
2016-May-06 11:29N 38°31' E 121°08'1111.9
2016-May-06 10:33N 38°26' E 121°20'10012.2
2016-May-06 02:21N 37°42' E 123°14'  
Track history (hours):
 
Tides and Currents Weather Stations Pressure Air Temp Water Temp Dewpoint Dewpoint Depression Visibility Wind Speed Wind Dir Waves Ship Positions

Bright Hope

Last reported at 2016-May-14 05:33 UTC. Time now 2016-May-26 00:39 UTC.
Position N 36°42' E 123°53'.
Warning: this ship's position is 11 days out of date.

Length 170 m; draft 6.8 m.

Type: Cargo ship. MMSI: 371117000.

Date/timePositionNaut miles runAvg speedWind from/ knotsBaromVisibWave heightAir tempDewpointWater temp
2016-May-14 05:33N 36°42' E 123°53'1212.1
2016-May-14 04:32N 36°53' E 123°49'2411.6
2016-May-14 02:28N 37°16' E 123°38'1411.8
2016-May-14 01:17N 37°29' E 123°32'1112.2
2016-May-14 00:23N 37°39' E 123°26'2512.6
2016-May-13 22:23N 37°58' E 123°05'1113.6
2016-May-13 21:33N 38°01' E 122°51'1413.8
2016-May-13 20:33N 38°05' E 122°35'1413.5
2016-May-13 19:33N 38°10' E 122°18'1313.3
2016-May-13 18:33N 38°14' E 122°02'1313.2
2016-May-13 17:33N 38°18' E 121°47'1313.4
2016-May-13 16:33N 38°23' E 121°30'1313.5
2016-May-13 15:33N 38°26' E 121°14'1313.1
2016-May-13 14:32N 38°32' E 120°58'11510.4
2016-May-13 03:31N 40°18' E 121°54'8 8.3
2016-May-13 02:33N 40°18' E 122°05'0 0.2
2016-May-13 01:15N 40°18' E 122°05'0 0.0
2016-May-12 21:09N 40°18' E 122°05'0 0.0
2016-May-12 20:33N 40°18' E 122°05'0 0.0
2016-May-12 17:03N 40°18' E 122°05'0 0.0
2016-May-12 16:33N 40°18' E 122°05'0 0.0
2016-May-12 15:33N 40°18' E 122°05'0 0.0
2016-May-12 14:27N 40°18' E 122°05'0 0.0
2016-May-12 13:15N 40°18' E 122°05'0 0.0
2016-May-12 11:27N 40°18' E 122°05'0 0.0
2016-May-12 06:33N 40°18' E 122°05'0 0.0
2016-May-12 05:27N 40°18' E 122°05'0 0.0
2016-May-12 04:33N 40°18' E 122°05'0 0.0
2016-May-12 03:09N 40°18' E 122°05'0 0.0
2016-May-12 02:15N 40°18' E 122°05'0 0.0
2016-May-12 01:15N 40°18' E 122°05'0 0.0
2016-May-12 00:33N 40°18' E 122°05'0 0.0
2016-May-11 23:15N 40°18' E 122°05'0 0.0
2016-May-11 22:15N 40°18' E 122°05'0 0.0
2016-May-11 20:33N 40°18' E 122°05'0 0.0
2016-May-11 19:15N 40°18' E 122°05'0 0.0
2016-May-11 18:33N 40°18' E 122°05'0 0.0
2016-May-11 14:15N 40°18' E 122°05'0 0.0
2016-May-11 13:27N 40°18' E 122°05'0 0.0
2016-May-11 12:33N 40°18' E 122°05'0 0.0
2016-May-11 11:27N 40°18' E 122°05'0 0.0
2016-May-11 08:27N 40°18' E 122°05'0 0.0
2016-May-11 07:03N 40°18' E 122°05'0 0.0
2016-May-11 04:33N 40°18' E 122°05'0 0.0
2016-May-10 20:21N 40°18' E 122°05'0 0.0
2016-May-10 16:27N 40°18' E 122°05'0 0.0
2016-May-10 15:33N 40°18' E 122°05'0 0.0
2016-May-10 14:33N 40°18' E 122°05'0 0.0
2016-May-10 13:33N 40°18' E 122°05'0 0.0
2016-May-10 11:15N 40°18' E 122°05'0 0.0
2016-May-10 09:33N 40°18' E 122°05'0 0.0
2016-May-10 07:21N 40°18' E 122°05'1 0.3
2016-May-10 05:33N 40°18' E 122°04'92 3.6
2016-May-09 04:09N 39°37' E 120°16'813.4
2016-May-09 03:33N 39°38' E 120°06'1413.2
2016-May-09 02:28N 39°43' E 119°48'1111.7
2016-May-09 01:34N 39°51' E 119°39'4 3.9
2016-May-09 00:25N 39°54' E 119°36'0 0.0
2016-May-08 23:31N 39°54' E 119°36'0 0.0
2016-May-08 22:25N 39°54' E 119°36'0 0.0
2016-May-08 21:31N 39°54' E 119°36'0 0.0
2016-May-08 20:31N 39°54' E 119°36'0 0.0
2016-May-08 12:19N 39°54' E 119°36'0 0.0
2016-May-08 11:25N 39°54' E 119°36'0 0.0
2016-May-08 09:25N 39°54' E 119°36'0 0.0
2016-May-08 08:31N 39°54' E 119°36'0 0.0
2016-May-08 07:31N 39°54' E 119°36'0 0.0
2016-May-08 06:19N 39°54' E 119°36'0 0.0
2016-May-08 05:31N 39°54' E 119°36'0 0.0
2016-May-08 04:25N 39°54' E 119°36'0 0.0
2016-May-08 03:31N 39°54' E 119°36'0 0.0
2016-May-08 02:25N 39°54' E 119°36'0 0.0
2016-May-08 01:31N 39°54' E 119°36'0 0.0
2016-May-08 00:31N 39°54' E 119°36'0 0.0
2016-May-07 23:31N 39°54' E 119°36'0 0.0
2016-May-07 22:31N 39°54' E 119°36'0 0.0
2016-May-07 21:31N 39°54' E 119°36'0 0.0
2016-May-07 20:31N 39°54' E 119°36'0 0.0
2016-May-07 19:19N 39°54' E 119°36'0 0.0
2016-May-07 18:31N 39°54' E 119°36'0 0.0
2016-May-07 17:31N 39°54' E 119°36'0 0.0
2016-May-07 16:31N 39°54' E 119°36'0 0.0
2016-May-07 15:25N 39°54' E 119°36'0 0.0
2016-May-07 14:31N 39°54' E 119°36'0 0.0
2016-May-07 12:19N 39°54' E 119°36'0 0.0
2016-May-07 08:31N 39°54' E 119°36'0 0.0
2016-May-07 07:31N 39°54' E 119°36'0 0.0
2016-May-07 06:31N 39°54' E 119°36'0 0.0
2016-May-07 05:31N 39°54' E 119°36'0 0.0
2016-May-07 04:31N 39°54' E 119°36'0 0.0
2016-May-07 03:25N 39°54' E 119°36'0 0.0
2016-May-07 02:31N 39°54' E 119°36'0 0.0
2016-May-07 01:31N 39°54' E 119°36'0 0.1
2016-May-07 00:33N 39°54' E 119°36'7 6.6
2016-May-06 23:33N 39°49' E 119°40'3 2.2
2016-May-06 22:13N 39°46' E 119°39'0 0.1
2016-May-06 21:31N 39°46' E 119°39'78 9.7
2016-May-06 13:30N 38°48' E 120°46'1312.2
2016-May-06 12:24N 38°37' E 120°55'1112.0
2016-May-06 11:29N 38°31' E 121°08'1111.9
2016-May-06 10:33N 38°26' E 121°20'10012.2
2016-May-06 02:21N 37°42' E 123°14'  

Dump ship's entire track history